Time;durP1;ratioP1;P1;durP2;ratioP2;P2;SDS_P1;SDS_P2;PMS_P1;PMS_P2;Temp;Humidity;BMP_temperature;BMP_pressure;BME280_temperature;BME280_humidity;BME280_pressure;Samples;Min_cycle;Max_cycle;Signal;HPM_P1;HPM_P2
2023/04/16 07:48:35;;;;;;;6.47;3.10;;;9.10;99.90;;;;;;4888619;23;20294;-78
2023/04/16 07:51:02;;;;;;;10.27;3.30;;;9.20;99.90;;;;;;4880628;29;20218;-76
2023/04/16 07:53:30;;;;;;;12.33;3.87;;;9.10;99.90;;;;;;4880610;29;20227;-79
2023/04/16 07:55:57;;;;;;;7.43;3.07;;;9.20;99.90;;;;;;4880761;29;20294;-81
2023/04/16 07:58:24;;;;;;;9.57;3.00;;;9.20;99.90;;;;;;4880604;29;20211;-78
2023/04/16 08:00:51;;;;;;;11.27;3.13;;;9.20;99.90;;;;;;4880838;29;20615;-82
2023/04/16 08:03:18;;;;;;;10.10;3.33;;;9.20;99.90;;;;;;4880771;29;20235;-81
2023/04/16 08:05:46;;;;;;;6.37;2.87;;;9.20;99.90;;;;;;4880251;29;20670;-79
2023/04/16 08:08:13;;;;;;;9.50;2.53;;;9.20;99.90;;;;;;4876819;29;20225;-81
2023/04/16 08:10:40;;;;;;;9.17;2.70;;;9.40;99.90;;;;;;4879626;29;20219;-78
2023/04/16 08:13:07;;;;;;;11.30;3.20;;;9.40;99.90;;;;;;4879677;29;20237;-80
2023/04/16 08:15:33;;;;;;;9.07;3.53;;;9.40;99.90;;;;;;4881340;29;20211;-83
2023/04/16 08:18:00;;;;;;;14.20;4.20;;;9.40;99.90;;;;;;4880512;29;20222;-80
2023/04/16 08:20:27;;;;;;;5.70;3.00;;;9.40;99.90;;;;;;4880572;29;20222;-82
2023/04/16 08:22:55;;;;;;;12.23;2.80;;;9.40;99.90;;;;;;4881856;29;20211;-80
2023/04/16 08:25:23;;;;;;;10.97;3.40;;;9.40;99.90;;;;;;4879832;29;20210;-72
2023/04/16 08:27:50;;;;;;;6.53;2.80;;;9.50;99.90;;;;;;4879636;29;20226;-72
2023/04/16 08:30:20;;;;;;;9.50;3.57;;;9.50;99.90;;;;;;4880127;29;20215;-73
2023/04/16 08:32:47;;;;;;;9.80;4.17;;;9.50;99.90;;;;;;4880012;29;20571;-72
2023/04/16 08:35:19;;;;;;;8.40;3.30;;;9.40;99.90;;;;;;4880263;29;20222;-72
2023/04/16 08:37:46;;;;;;;8.27;3.67;;;9.50;99.90;;;;;;4880082;29;20258;-71
2023/04/16 08:40:14;;;;;;;8.10;3.77;;;9.50;99.90;;;;;;4881606;29;20262;-75
2023/04/16 08:42:45;;;;;;;9.50;3.10;;;9.50;99.90;;;;;;4880597;29;20243;-71
2023/04/16 08:45:15;;;;;;;14.30;4.53;;;9.60;99.90;;;;;;4880924;29;20211;-72
2023/04/16 08:47:46;;;;;;;11.33;4.10;;;9.50;99.90;;;;;;4881357;29;20246;-72
2023/04/16 08:50:16;;;;;;;11.13;3.70;;;9.60;99.90;;;;;;4881615;29;20215;-71
2023/04/16 08:52:46;;;;;;;9.23;3.50;;;9.60;99.90;;;;;;4881344;29;20616;-72
2023/04/16 08:55:18;;;;;;;8.47;3.70;;;9.60;99.90;;;;;;4880393;29;20543;-71
2023/04/16 08:57:52;;;;;;;10.57;3.63;;;9.60;99.90;;;;;;4880142;29;20222;-70
2023/04/16 09:00:20;;;;;;;5.27;3.77;;;9.70;99.90;;;;;;4876535;29;20215;-76
2023/04/16 09:02:47;;;;;;;10.27;4.23;;;9.60;99.90;;;;;;4879310;29;20306;-73
2023/04/16 09:05:16;;;;;;;9.30;4.00;;;9.60;99.90;;;;;;4877479;29;20302;-76
2023/04/16 09:07:45;;;;;;;15.03;4.53;;;9.60;99.90;;;;;;4877734;29;20702;-75
2023/04/16 09:10:12;;;;;;;10.77;4.00;;;9.60;99.90;;;;;;4876636;29;20717;-75
2023/04/16 09:12:42;;;;;;;13.27;4.20;;;9.70;99.90;;;;;;4877628;29;20222;-75
2023/04/16 09:15:10;;;;;;;9.50;4.13;;;9.80;99.90;;;;;;4877708;29;20237;-75
2023/04/16 09:17:37;;;;;;;14.10;4.00;;;9.80;99.90;;;;;;4878034;29;20555;-74
2023/04/16 09:20:07;;;;;;;18.83;8.13;;;9.80;99.90;;;;;;4877709;29;20218;-74
2023/04/16 09:22:34;;;;;;;11.77;4.53;;;9.80;99.90;;;;;;4877828;29;20622;-70
2023/04/16 09:25:01;;;;;;;17.50;4.60;;;9.80;99.90;;;;;;4877632;29;20309;-71
2023/04/16 09:27:29;;;;;;;10.37;4.00;;;9.80;99.90;;;;;;4877577;29;20591;-70
2023/04/16 09:29:58;;;;;;;14.07;4.20;;;9.90;99.90;;;;;;4877757;29;20203;-71
2023/04/16 09:32:26;;;;;;;16.13;4.57;;;9.90;99.90;;;;;;4877936;29;20215;-70
2023/04/16 09:34:57;;;;;;;11.00;4.40;;;9.80;99.90;;;;;;4877924;29;20269;-70
2023/04/16 09:37:25;;;;;;;8.63;3.97;;;9.80;99.90;;;;;;4877419;29;20211;-71
2023/04/16 09:39:57;;;;;;;7.93;4.57;;;9.70;99.90;;;;;;4877904;29;20211;-70
2023/04/16 09:42:27;;;;;;;9.77;4.23;;;9.70;99.90;;;;;;4877810;29;20222;-71
2023/04/16 09:44:54;;;;;;;9.30;4.23;;;9.80;99.90;;;;;;4877195;29;20239;-71
2023/04/16 09:47:23;;;;;;;7.60;4.00;;;9.80;99.90;;;;;;4877312;29;20705;-72
2023/04/16 09:49:50;;;;;;;6.00;3.70;;;9.80;99.90;;;;;;4877524;29;20218;-72
2023/04/16 09:52:18;;;;;;;6.97;3.80;;;9.80;99.90;;;;;;4878155;29;20211;-74
2023/04/16 09:54:47;;;;;;;9.83;4.50;;;9.90;99.90;;;;;;4877974;29;20227;-72
2023/04/16 09:57:14;;;;;;;10.17;4.47;;;9.90;99.90;;;;;;4877405;29;20213;-71
2023/04/16 09:59:41;;;;;;;8.77;4.27;;;9.80;99.90;;;;;;4877123;29;20249;-71
2023/04/16 10:02:09;;;;;;;11.73;3.93;;;9.90;99.90;;;;;;4877665;29;20218;-76
2023/04/16 10:04:47;;;;;;;10.43;4.43;;;9.90;99.90;;;;;;4880146;29;20271;-72
2023/04/16 10:07:14;;;;;;;8.67;4.07;;;9.90;99.90;;;;;;4880510;29;20239;-71
2023/04/16 10:09:41;;;;;;;10.47;4.50;;;9.80;99.90;;;;;;4880723;29;20208;-72
2023/04/16 10:12:08;;;;;;;9.63;3.70;;;9.90;99.90;;;;;;4880488;29;20730;-70
2023/04/16 10:14:35;;;;;;;11.63;5.17;;;9.80;99.90;;;;;;4880860;29;20227;-71
2023/04/16 10:17:04;;;;;;;10.50;3.50;;;9.90;99.90;;;;;;4880780;29;20211;-70
2023/04/16 10:19:32;;;;;;;6.63;3.70;;;10.00;99.90;;;;;;4880241;29;20844;-72
2023/04/16 10:22:01;;;;;;;11.40;4.33;;;10.00;99.90;;;;;;4880695;29;20211;-72
2023/04/16 10:24:29;;;;;;;12.53;3.83;;;10.00;99.90;;;;;;4882286;29;20231;-72
2023/04/16 10:26:56;;;;;;;7.87;3.23;;;10.00;99.90;;;;;;4877648;29;20319;-71
2023/04/16 10:29:23;;;;;;;7.63;3.13;;;10.10;99.90;;;;;;4867601;29;20247;-70
2023/04/16 10:31:51;;;;;;;7.60;3.20;;;10.10;99.90;;;;;;4880832;29;20221;-70
2023/04/16 10:34:19;;;;;;;7.90;3.60;;;10.10;99.90;;;;;;4880634;29;20259;-70
2023/04/16 10:36:48;;;;;;;5.50;3.07;;;10.10;99.90;;;;;;4879136;29;20632;-70
2023/04/16 10:39:18;;;;;;;11.60;3.80;;;10.20;99.90;;;;;;4880950;29;20219;-72
2023/04/16 10:41:45;;;;;;;8.90;3.43;;;10.10;99.90;;;;;;4881004;29;20215;-71
2023/04/16 10:44:12;;;;;;;8.00;3.20;;;10.10;99.90;;;;;;4881451;29;20239;-72
2023/04/16 10:46:41;;;;;;;7.50;3.40;;;10.10;99.90;;;;;;4881115;29;20246;-72
2023/04/16 10:49:16;;;;;;;10.63;4.33;;;10.00;99.90;;;;;;4881383;29;20215;-71
2023/04/16 10:51:53;;;;;;;8.33;3.33;;;10.00;99.90;;;;;;4881560;29;20686;-72
2023/04/16 10:54:24;;;;;;;7.03;3.40;;;10.20;99.90;;;;;;4881441;29;20233;-71
2023/04/16 10:56:51;;;;;;;8.47;3.77;;;10.20;99.90;;;;;;4881307;29;20595;-71
2023/04/16 10:59:20;;;;;;;7.57;3.63;;;10.20;99.90;;;;;;4881568;29;20215;-71
2023/04/16 11:01:48;;;;;;;8.17;3.43;;;10.30;99.90;;;;;;4881222;29;20211;-72
2023/04/16 11:04:29;;;;;;;6.73;3.60;;;10.30;99.90;;;;;;4881063;29;20231;-72
2023/04/16 11:07:08;;;;;;;9.77;3.23;;;10.30;99.90;;;;;;4881330;29;20246;-72
2023/04/16 11:10:05;;;;;;;7.17;3.20;;;10.40;99.90;;;;;;4881219;29;20219;-71
2023/04/16 11:12:36;;;;;;;5.93;3.50;;;10.40;99.90;;;;;;4881083;29;20275;-72
2023/04/16 11:15:04;;;;;;;9.67;4.07;;;10.40;99.90;;;;;;4880836;29;20234;-71
2023/04/16 11:17:33;;;;;;;12.70;3.90;;;10.30;99.90;;;;;;4881020;29;20223;-71
2023/04/16 11:19:59;;;;;;;10.17;3.90;;;10.40;99.90;;;;;;4881049;29;20222;-72
2023/04/16 11:22:27;;;;;;;5.93;3.00;;;10.50;99.90;;;;;;4880852;29;20216;-71
2023/04/16 11:24:55;;;;;;;7.00;3.07;;;10.50;99.90;;;;;;4880591;29;20722;-72
2023/04/16 11:27:24;;;;;;;7.80;4.23;;;10.50;99.90;;;;;;4880949;29;20242;-71
2023/04/16 11:29:58;;;;;;;8.43;3.80;;;10.30;99.90;;;;;;4880795;29;20225;-72
2023/04/16 11:32:25;;;;;;;8.87;3.93;;;10.40;99.90;;;;;;4880816;29;20615;-72
2023/04/16 11:34:52;;;;;;;8.90;3.80;;;10.50;99.90;;;;;;4880509;29;20228;-70
2023/04/16 11:37:21;;;;;;;9.33;3.57;;;10.60;99.90;;;;;;4876075;29;20697;-70
2023/04/16 11:39:49;;;;;;;15.90;4.40;;;10.60;99.90;;;;;;4879140;29;20215;-70
2023/04/16 11:42:21;;;;;;;8.20;3.43;;;10.50;99.90;;;;;;4878949;29;20254;-69
2023/04/16 11:44:51;;;;;;;13.73;3.80;;;10.60;99.90;;;;;;4878313;29;20322;-70
2023/04/16 11:47:18;;;;;;;10.73;3.97;;;10.60;99.90;;;;;;4878650;29;20245;-70
2023/04/16 11:49:45;;;;;;;8.57;3.50;;;10.70;99.90;;;;;;4878959;29;20215;-71
2023/04/16 11:52:12;;;;;;;12.83;3.50;;;10.70;99.90;;;;;;4879214;29;20291;-69
2023/04/16 11:54:39;;;;;;;8.80;3.70;;;10.70;99.90;;;;;;4879040;29;20234;-69
2023/04/16 11:57:05;;;;;;;8.57;4.27;;;10.60;99.90;;;;;;4878828;29;20219;-70
2023/04/16 11:59:33;;;;;;;9.77;4.13;;;10.60;99.90;;;;;;4878914;29;20211;-70
2023/04/16 12:02:01;;;;;;;13.27;4.63;;;10.60;99.90;;;;;;4879087;29;20215;-70
2023/04/16 12:04:28;;;;;;;8.13;4.53;;;10.60;99.90;;;;;;4879124;29;20235;-69
2023/04/16 12:07:05;;;;;;;11.60;4.67;;;10.70;99.90;;;;;;4878738;29;20246;-69
2023/04/16 12:09:33;;;;;;;10.67;4.73;;;10.70;99.90;;;;;;4878927;29;20302;-69
2023/04/16 12:12:00;;;;;;;9.63;4.87;;;10.80;99.90;;;;;;4878770;29;20211;-69
2023/04/16 12:14:27;;;;;;;10.10;5.73;;;10.80;99.90;;;;;;4879395;29;20234;-69
2023/04/16 12:16:54;;;;;;;14.63;6.57;;;10.80;99.90;;;;;;4879544;29;20211;-69
2023/04/16 12:19:22;;;;;;;8.67;4.77;;;10.80;99.90;;;;;;4878851;29;20215;-71
2023/04/16 12:21:50;;;;;;;10.93;5.07;;;10.80;99.90;;;;;;4878735;29;20215;-70
2023/04/16 12:24:21;;;;;;;8.43;5.60;;;10.90;99.90;;;;;;4878293;29;20235;-69
2023/04/16 12:26:54;;;;;;;11.10;5.23;;;10.80;99.90;;;;;;4878056;29;20207;-69
2023/04/16 12:29:23;;;;;;;10.13;4.97;;;10.90;99.90;;;;;;4879102;29;20215;-69
2023/04/16 12:31:52;;;;;;;8.73;4.93;;;10.90;99.90;;;;;;4878279;29;20666;-70
2023/04/16 12:34:20;;;;;;;12.57;4.97;;;11.00;99.90;;;;;;4878035;29;20234;-70
2023/04/16 12:37:04;;;;;;;8.80;4.17;;;11.00;99.90;;;;;;4878391;29;20211;-69
2023/04/16 12:39:31;;;;;;;8.53;4.37;;;11.10;99.90;;;;;;4878415;29;20215;-71
2023/04/16 12:41:57;;;;;;;8.83;4.63;;;11.10;99.90;;;;;;4878212;29;20215;-70
2023/04/16 12:44:24;;;;;;;8.50;4.90;;;11.10;99.90;;;;;;4878124;29;20478;-70
2023/04/16 12:46:51;;;;;;;10.70;4.53;;;11.10;99.90;;;;;;4878014;29;20670;-70
2023/04/16 12:49:18;;;;;;;9.87;5.40;;;11.00;99.90;;;;;;4878160;29;20207;-70
2023/04/16 12:51:45;;;;;;;9.83;5.30;;;11.10;99.90;;;;;;4878560;29;20215;-70
2023/04/16 12:54:13;;;;;;;12.53;5.03;;;11.20;99.90;;;;;;4878120;29;20235;-70
2023/04/16 12:56:40;;;;;;;14.57;5.83;;;11.30;99.90;;;;;;4877806;29;20621;-71
2023/04/16 12:59:08;;;;;;;11.77;5.40;;;11.40;99.90;;;;;;4878006;29;20214;-71
2023/04/16 13:01:36;;;;;;;12.47;5.60;;;11.40;99.90;;;;;;4878385;29;20218;-70
2023/04/16 13:04:02;;;;;;;11.00;4.17;;;11.40;99.90;;;;;;4877762;29;20318;-71
2023/04/16 13:06:31;;;;;;;8.00;4.63;;;11.40;99.90;;;;;;4878781;29;20738;-70
2023/04/16 13:08:58;;;;;;;7.40;3.83;;;11.30;99.90;;;;;;4877765;29;20242;-70
2023/04/16 13:11:26;;;;;;;8.70;4.17;;;11.30;99.90;;;;;;4878132;29;20497;-69
2023/04/16 13:13:53;;;;;;;6.87;3.90;;;11.30;99.90;;;;;;4877298;29;20640;-70
2023/04/16 13:16:20;;;;;;;5.53;3.80;;;11.20;99.90;;;;;;4877944;29;20235;-72
2023/04/16 13:18:47;;;;;;;7.57;4.07;;;11.20;99.90;;;;;;4879225;29;20214;-70
2023/04/16 13:21:13;;;;;;;12.47;4.67;;;11.30;99.90;;;;;;4878761;29;20211;-70
2023/04/16 13:23:40;;;;;;;11.20;5.33;;;11.40;99.90;;;;;;4880388;29;20291;-71
2023/04/16 13:26:07;;;;;;;14.43;5.40;;;11.40;99.90;;;;;;4877668;29;20211;-70
2023/04/16 13:28:35;;;;;;;9.83;5.53;;;11.60;99.90;;;;;;4878019;29;20246;-70
2023/04/16 13:31:03;;;;;;;9.10;5.77;;;11.60;99.90;;;;;;4880132;29;20211;-70
2023/04/16 13:33:29;;;;;;;12.47;5.93;;;11.70;99.90;;;;;;4877404;29;20235;-73
2023/04/16 13:35:56;;;;;;;15.47;5.63;;;11.70;99.90;;;;;;4877455;29;20207;-70
2023/04/16 13:38:23;;;;;;;11.13;5.07;;;11.80;99.90;;;;;;4880068;29;20219;-71
2023/04/16 13:40:50;;;;;;;9.63;4.80;;;11.70;99.90;;;;;;4881343;29;20670;-71
2023/04/16 13:43:17;;;;;;;11.27;5.23;;;11.50;99.90;;;;;;4881893;29;20245;-70
2023/04/16 13:45:46;;;;;;;10.63;4.77;;;11.60;99.90;;;;;;4881716;29;20305;-70
2023/04/16 13:48:12;;;;;;;10.43;4.90;;;11.60;99.90;;;;;;4881066;29;20330;-70
2023/04/16 13:50:39;;;;;;;9.77;5.67;;;11.70;99.90;;;;;;4881536;29;20237;-70
2023/04/16 13:53:06;;;;;;;11.37;6.00;;;11.70;99.90;;;;;;4882718;29;20234;-70
2023/04/16 13:55:33;;;;;;;11.27;5.97;;;11.80;99.90;;;;;;4882410;29;20211;-70
2023/04/16 13:58:00;;;;;;;10.60;6.03;;;11.80;99.90;;;;;;4882434;29;20225;-71
2023/04/16 14:00:27;;;;;;;11.13;5.73;;;11.90;99.90;;;;;;4882581;29;20211;-72
2023/04/16 14:02:55;;;;;;;11.07;5.20;;;11.90;99.90;;;;;;4882160;29;20751;-72
2023/04/16 14:05:23;;;;;;;9.07;5.17;;;11.80;99.90;;;;;;4882313;29;20225;-71
2023/04/16 14:07:50;;;;;;;11.07;5.30;;;11.80;99.90;;;;;;4882308;29;20239;-71
2023/04/16 14:10:17;;;;;;;12.03;5.90;;;11.90;99.90;;;;;;4882468;29;20222;-72
2023/04/16 14:12:45;;;;;;;12.23;6.80;;;11.90;99.90;;;;;;4882533;29;20753;-72
2023/04/16 14:15:13;;;;;;;11.30;5.87;;;11.80;99.90;;;;;;4882232;29;20306;-72
2023/04/16 14:17:41;;;;;;;10.70;5.77;;;11.80;99.90;;;;;;4882146;29;20570;-71
2023/04/16 14:20:11;;;;;;;8.83;5.13;;;11.90;99.90;;;;;;4882060;29;20633;-71
2023/04/16 14:22:38;;;;;;;12.90;5.23;;;12.00;99.90;;;;;;4882395;29;20219;-72
2023/04/16 14:25:06;;;;;;;11.80;5.50;;;12.00;99.90;;;;;;4882049;29;20736;-73
2023/04/16 14:27:33;;;;;;;11.40;6.13;;;12.10;99.90;;;;;;4881808;29;20246;-71
2023/04/16 14:30:00;;;;;;;8.83;5.80;;;12.10;99.90;;;;;;4881745;29;20211;-72
2023/04/16 14:32:27;;;;;;;11.00;5.63;;;12.00;99.90;;;;;;4881490;29;20214;-72
2023/04/16 14:34:53;;;;;;;9.83;5.17;;;12.10;99.90;;;;;;4881763;29;20235;-72
2023/04/16 14:37:22;;;;;;;10.83;5.50;;;12.20;99.90;;;;;;4881438;29;20211;-71
2023/04/16 14:39:49;;;;;;;8.77;5.67;;;12.30;99.90;;;;;;4881268;29;20313;-71
2023/04/16 14:42:16;;;;;;;10.57;5.67;;;12.40;99.90;;;;;;4881477;29;20214;-71
2023/04/16 14:44:43;;;;;;;11.47;5.30;;;12.40;99.90;;;;;;4881426;29;20231;-72
2023/04/16 14:47:10;;;;;;;9.30;6.00;;;12.50;99.90;;;;;;4881172;29;20223;-72
2023/04/16 14:49:37;;;;;;;10.73;5.60;;;12.60;99.90;;;;;;4880452;29;20242;-70
2023/04/16 14:52:04;;;;;;;8.57;5.60;;;12.50;99.90;;;;;;4881277;29;21072;-74
2023/04/16 14:54:33;;;;;;;9.13;6.00;;;12.60;99.90;;;;;;4881479;29;20702;-70
2023/04/16 14:57:00;;;;;;;8.63;5.70;;;12.60;99.90;;;;;;4881459;29;20211;-70
2023/04/16 14:59:27;;;;;;;11.67;5.77;;;12.70;99.90;;;;;;4881110;29;20212;-70
2023/04/16 15:01:56;;;;;;;12.83;6.27;;;12.70;99.90;;;;;;4881130;29;20306;-71
2023/04/16 15:04:23;;;;;;;10.83;5.90;;;12.60;99.90;;;;;;4881240;29;20241;-69
2023/04/16 15:06:50;;;;;;;8.70;6.10;;;12.60;99.90;;;;;;4881462;29;20578;-71
2023/04/16 15:09:17;;;;;;;12.17;7.20;;;12.60;99.90;;;;;;4881288;29;20239;-72
2023/04/16 15:11:45;;;;;;;10.07;5.77;;;12.60;99.90;;;;;;4881169;29;20582;-71
2023/04/16 15:14:12;;;;;;;9.00;5.70;;;12.60;99.90;;;;;;4881054;29;20231;-73
2023/04/16 15:16:39;;;;;;;10.60;5.57;;;12.60;99.90;;;;;;4881373;29;20218;-70
2023/04/16 15:19:06;;;;;;;8.30;5.67;;;12.50;99.90;;;;;;4880975;29;20293;-72
2023/04/16 15:21:32;;;;;;;11.60;5.57;;;12.50;99.90;;;;;;4881153;29;20211;-73
2023/04/16 15:23:59;;;;;;;9.97;5.87;;;12.40;99.90;;;;;;4881203;29;20231;-73
2023/04/16 15:26:26;;;;;;;7.67;5.33;;;12.40;99.90;;;;;;4880883;29;20684;-72
2023/04/16 15:28:54;;;;;;;11.53;6.57;;;12.30;99.90;;;;;;4881012;29;20246;-72
2023/04/16 15:31:21;;;;;;;9.57;6.10;;;12.30;99.90;;;;;;4881196;29;20623;-74
2023/04/16 15:33:48;;;;;;;10.90;5.47;;;12.30;99.90;;;;;;4880899;29;20228;-70
2023/04/16 15:36:15;;;;;;;10.30;6.07;;;12.40;99.90;;;;;;4880969;29;20215;-71
2023/04/16 15:38:42;;;;;;;10.77;6.47;;;12.50;99.90;;;;;;4881120;29;20215;-71
2023/04/16 15:41:10;;;;;;;10.67;6.03;;;12.30;99.90;;;;;;4880894;29;20306;-73
2023/04/16 15:43:37;;;;;;;14.63;7.30;;;12.40;99.90;;;;;;4881102;29;20322;-71
2023/04/16 15:46:06;;;;;;;8.90;5.73;;;12.50;99.90;;;;;;4880886;29;20231;-74
2023/04/16 15:48:33;;;;;;;10.67;6.37;;;12.70;99.90;;;;;;4880216;29;20231;-73
2023/04/16 15:51:00;;;;;;;13.73;7.53;;;12.60;99.90;;;;;;4880639;29;20208;-72
2023/04/16 15:53:27;;;;;;;14.60;7.60;;;12.60;99.90;;;;;;4880440;29;20227;-72
2023/04/16 15:55:55;;;;;;;14.93;7.13;;;12.60;99.90;;;;;;4880442;29;20215;-71
2023/04/16 15:58:21;;;;;;;11.47;6.90;;;12.60;99.90;;;;;;4880220;29;20221;-73
2023/04/16 16:00:49;;;;;;;10.83;6.30;;;12.40;99.90;;;;;;4879179;29;20246;-71
2023/04/16 16:03:18;;;;;;;12.73;6.13;;;12.40;99.90;;;;;;4879990;29;20664;-71
2023/04/16 16:05:46;;;;;;;13.70;6.60;;;12.40;99.90;;;;;;4880112;29;20211;-73
2023/04/16 16:08:13;;;;;;;10.37;6.77;;;12.30;99.90;;;;;;4879938;29;20290;-72
2023/04/16 16:10:40;;;;;;;12.50;6.73;;;12.20;99.90;;;;;;4879802;29;20246;-73
2023/04/16 16:13:11;;;;;;;11.20;6.90;;;12.10;99.90;;;;;;4879965;29;20322;-73
2023/04/16 16:15:39;;;;;;;13.20;6.37;;;12.10;99.90;;;;;;4879791;29;20218;-73
2023/04/16 16:18:06;;;;;;;11.93;7.13;;;12.00;99.90;;;;;;4879863;29;20215;-71
2023/04/16 16:20:35;;;;;;;12.70;7.37;;;12.00;99.90;;;;;;4880022;29;20258;-72
2023/04/16 16:23:10;;;;;;;17.80;7.97;;;11.90;99.90;;;;;;5152063;27;20620;-74
2023/04/16 16:25:37;;;;;;;12.03;7.27;;;12.00;99.90;;;;;;5152065;27;20200;-72
2023/04/16 16:28:05;;;;;;;11.93;7.10;;;12.00;99.90;;;;;;5151885;27;20204;-73
2023/04/16 16:30:31;;;;;;;11.87;6.90;;;12.00;99.90;;;;;;5152018;27;20204;-74
2023/04/16 16:32:58;;;;;;;11.87;6.80;;;12.10;99.90;;;;;;5151316;27;20214;-73
2023/04/16 16:35:25;;;;;;;8.67;6.07;;;12.10;99.90;;;;;;5151353;27;20650;-74
2023/04/16 16:37:54;;;;;;;9.97;5.73;;;12.10;99.90;;;;;;5151682;27;20540;-74
2023/04/16 16:40:22;;;;;;;10.30;5.77;;;12.10;99.90;;;;;;5151924;27;20200;-74
2023/04/16 16:42:49;;;;;;;13.33;6.00;;;12.10;99.90;;;;;;5151703;27;20228;-73
2023/04/16 16:45:16;;;;;;;11.17;6.27;;;12.20;99.90;;;;;;5151708;27;20200;-74
2023/04/16 16:47:43;;;;;;;13.00;6.33;;;12.20;99.90;;;;;;5151512;27;20200;-71
2023/04/16 16:50:11;;;;;;;10.37;6.43;;;12.20;99.90;;;;;;5151444;27;20558;-73
2023/04/16 16:52:38;;;;;;;16.60;7.30;;;12.20;99.90;;;;;;5151822;27;20200;-74
2023/04/16 16:55:07;;;;;;;13.33;6.70;;;12.20;99.90;;;;;;5151814;27;20265;-72
2023/04/16 16:57:35;;;;;;;14.17;6.30;;;12.20;99.90;;;;;;5151267;27;20211;-71
2023/04/16 17:00:03;;;;;;;13.53;6.63;;;12.20;99.90;;;;;;5151308;27;20204;-71
2023/04/16 17:02:30;;;;;;;10.53;6.10;;;12.30;99.90;;;;;;5151044;27;20693;-74
2023/04/16 17:04:57;;;;;;;10.07;5.63;;;12.30;99.90;;;;;;5151442;27;20228;-74
2023/04/16 17:07:26;;;;;;;9.63;5.33;;;12.20;99.90;;;;;;5151295;27;20608;-72
2023/04/16 17:09:52;;;;;;;11.23;6.47;;;12.30;99.90;;;;;;5150995;27;20208;-73
2023/04/16 17:12:19;;;;;;;13.30;6.30;;;12.30;99.90;;;;;;5151297;27;20212;-73
2023/04/16 17:14:51;;;;;;;12.40;6.43;;;12.00;99.90;;;;;;5150776;27;20217;-72
2023/04/16 17:17:18;;;;;;;11.60;6.33;;;12.00;99.90;;;;;;5150682;27;20203;-73
2023/04/16 17:19:45;;;;;;;9.50;6.00;;;12.00;99.90;;;;;;5151014;27;20211;-74
2023/04/16 17:22:12;;;;;;;10.57;5.93;;;12.00;99.90;;;;;;5150586;27;20228;-73
2023/04/16 17:24:38;;;;;;;12.63;5.83;;;12.10;99.90;;;;;;5150695;27;20217;-73
2023/04/16 17:27:05;;;;;;;11.33;6.77;;;12.10;99.90;;;;;;5150785;27;20197;-72
2023/04/16 17:29:32;;;;;;;9.20;5.87;;;12.10;99.90;;;;;;5150901;27;20200;-73
2023/04/16 17:32:00;;;;;;;9.33;5.70;;;12.20;99.90;;;;;;5150776;27;20207;-72
2023/04/16 17:34:27;;;;;;;10.73;5.70;;;12.20;99.90;;;;;;5136955;27;20220;-72
2023/04/16 17:36:53;;;;;;;10.30;6.30;;;12.10;99.90;;;;;;5136807;27;20208;-74
2023/04/16 17:39:20;;;;;;;16.33;7.30;;;12.00;99.90;;;;;;5136728;27;20201;-74
2023/04/16 17:41:52;;;;;;;11.10;6.03;;;12.00;99.90;;;;;;5136602;27;20236;-73
2023/04/16 17:44:19;;;;;;;9.70;5.90;;;12.00;99.90;;;;;;5136689;27;20587;-71
2023/04/16 17:46:46;;;;;;;12.03;6.40;;;11.90;99.90;;;;;;5136460;27;20212;-74
2023/04/16 17:49:14;;;;;;;11.63;6.10;;;11.90;99.90;;;;;;5136321;27;20201;-74
2023/04/16 17:51:43;;;;;;;10.43;6.43;;;11.80;99.90;;;;;;5136439;27;20231;-74
2023/04/16 17:54:10;;;;;;;12.50;7.10;;;11.70;99.90;;;;;;5136573;27;20229;-72
2023/04/16 17:56:37;;;;;;;12.80;6.60;;;11.70;99.90;;;;;;5136343;27;20201;-71
2023/04/16 17:59:03;;;;;;;9.93;6.27;;;11.80;99.90;;;;;;5136604;27;20205;-71
2023/04/16 18:01:30;;;;;;;11.67;7.17;;;11.80;99.90;;;;;;5135769;27;20201;-75
2023/04/16 18:03:57;;;;;;;11.33;6.80;;;11.80;99.90;;;;;;5135811;27;20217;-72
2023/04/16 18:06:26;;;;;;;14.70;6.93;;;11.90;99.90;;;;;;5136392;27;20205;-71
2023/04/16 18:08:53;;;;;;;13.00;7.37;;;11.80;99.90;;;;;;5135580;27;20236;-71
2023/04/16 18:11:20;;;;;;;15.83;8.50;;;11.80;99.90;;;;;;5135993;27;20207;-72
2023/04/16 18:13:46;;;;;;;15.87;8.20;;;11.70;99.90;;;;;;5135085;27;20225;-71
2023/04/16 18:16:16;;;;;;;15.83;8.23;;;11.80;99.90;;;;;;5126705;27;20205;-72
2023/04/16 18:18:43;;;;;;;13.90;7.90;;;11.80;99.90;;;;;;5126537;27;20212;-71
2023/04/16 18:21:10;;;;;;;14.37;8.00;;;11.80;99.90;;;;;;5125362;27;20218;-72
2023/04/16 18:23:38;;;;;;;14.43;8.17;;;11.80;99.90;;;;;;5117577;27;20577;-71
2023/04/16 18:26:05;;;;;;;14.67;8.40;;;11.60;99.90;;;;;;5121747;27;20207;-72
2023/04/16 18:28:32;;;;;;;15.20;8.40;;;11.60;99.90;;;;;;5122343;27;20229;-72
2023/04/16 18:31:03;;;;;;;17.10;9.63;;;11.60;99.90;;;;;;5124390;27;20193;-71
2023/04/16 18:33:30;;;;;;;15.47;9.47;;;11.60;99.90;;;;;;5123940;27;20450;-72
2023/04/16 18:35:59;;;;;;;15.73;8.90;;;11.70;99.90;;;;;;5117902;27;20212;-71
2023/04/16 18:38:26;;;;;;;17.17;10.07;;;11.70;99.90;;;;;;5120893;27;20292;-71
2023/04/16 18:40:54;;;;;;;16.93;9.53;;;11.70;99.90;;;;;;5133054;27;20591;-71
2023/04/16 18:43:22;;;;;;;16.83;9.20;;;11.60;99.90;;;;;;5117552;27;20302;-72
2023/04/16 18:45:49;;;;;;;17.03;9.47;;;11.60;99.90;;;;;;5129997;27;20224;-71
2023/04/16 18:48:16;;;;;;;18.30;10.27;;;11.70;99.90;;;;;;5126402;27;20209;-70
2023/04/16 18:50:43;;;;;;;18.47;10.07;;;11.50;99.90;;;;;;5130017;27;20207;-71
2023/04/16 18:53:09;;;;;;;17.63;9.23;;;11.50;99.90;;;;;;5121282;27;20299;-71
2023/04/16 18:55:36;;;;;;;17.30;9.27;;;11.50;99.90;;;;;;5125408;27;20567;-71
2023/04/16 18:58:04;;;;;;;18.43;9.93;;;11.50;99.90;;;;;;5124615;27;20270;-71
2023/04/16 19:00:31;;;;;;;16.93;8.77;;;11.60;99.90;;;;;;5124985;27;20674;-71
2023/04/16 19:02:58;;;;;;;17.07;9.53;;;11.70;99.90;;;;;;5124538;27;20229;-71
2023/04/16 19:05:25;;;;;;;15.37;8.93;;;11.70;99.90;;;;;;5128065;27;20200;-74
2023/04/16 19:07:51;;;;;;;15.17;9.23;;;11.60;99.90;;;;;;5128641;27;20204;-73
2023/04/16 19:10:18;;;;;;;16.57;9.43;;;11.60;99.90;;;;;;5127637;27;20193;-72
2023/04/16 19:12:45;;;;;;;19.57;10.03;;;11.50;99.90;;;;;;5126886;27;20201;-71
2023/04/16 19:15:13;;;;;;;16.60;9.27;;;11.50;99.90;;;;;;5127025;27;20669;-73
2023/04/16 19:17:40;;;;;;;16.57;9.33;;;11.30;99.90;;;;;;5126097;27;20204;-74
2023/04/16 19:20:10;;;;;;;19.20;10.07;;;11.20;99.90;;;;;;5125558;27;20555;-73
2023/04/16 19:22:37;;;;;;;16.67;9.53;;;11.30;99.90;;;;;;5124581;27;20220;-72
2023/04/16 19:25:04;;;;;;;16.07;9.60;;;11.20;99.90;;;;;;5116226;27;20225;-73
2023/04/16 19:27:31;;;;;;;17.73;9.47;;;11.30;99.90;;;;;;5115767;27;20288;-72
2023/04/16 19:29:57;;;;;;;16.33;9.30;;;11.20;99.90;;;;;;5122387;27;20207;-74
2023/04/16 19:32:25;;;;;;;18.50;9.50;;;11.30;99.90;;;;;;5130616;27;20201;-75
2023/04/16 19:34:52;;;;;;;18.63;10.20;;;11.40;99.90;;;;;;5114781;27;20684;-71
2023/04/16 19:37:19;;;;;;;25.17;12.33;;;11.40;99.90;;;;;;5121190;27;20223;-72
2023/04/16 19:39:46;;;;;;;18.90;9.53;;;11.30;99.90;;;;;;5119181;27;20189;-74
2023/04/16 19:42:13;;;;;;;17.83;9.73;;;11.30;99.90;;;;;;5126907;27;20230;-73
2023/04/16 19:44:40;;;;;;;18.27;10.00;;;11.40;99.90;;;;;;5127339;27;20227;-70
2023/04/16 19:47:07;;;;;;;18.33;10.00;;;11.50;99.90;;;;;;5125138;27;20205;-72
2023/04/16 19:49:35;;;;;;;19.97;10.37;;;11.50;99.90;;;;;;5116030;22;20232;-74
2023/04/16 19:52:02;;;;;;;16.50;9.33;;;11.50;99.90;;;;;;5065692;28;20200;-76
2023/04/16 19:54:32;;;;;;;18.30;9.90;;;11.50;99.90;;;;;;5061367;28;20278;-75
2023/04/16 19:57:00;;;;;;;19.53;9.90;;;11.40;99.90;;;;;;5057118;28;20204;-75
2023/04/16 19:59:27;;;;;;;20.67;11.10;;;11.30;99.90;;;;;;5059190;28;20262;-76
2023/04/16 20:01:54;;;;;;;18.97;11.13;;;11.30;99.90;;;;;;5057959;28;20203;-76
2023/04/16 20:04:21;;;;;;;17.63;9.80;;;11.30;99.90;;;;;;5060386;28;20725;-76
2023/04/16 20:06:49;;;;;;;20.20;9.47;;;11.50;99.90;;;;;;5061706;28;20642;-75
2023/04/16 20:09:18;;;;;;;16.40;9.13;;;11.40;99.90;;;;;;5060337;28;20210;-75
2023/04/16 20:11:45;;;;;;;19.30;10.50;;;11.40;99.90;;;;;;5059050;28;20671;-75
2023/04/16 20:14:12;;;;;;;15.93;8.90;;;11.40;99.90;;;;;;5052776;28;20227;-75
2023/04/16 20:16:39;;;;;;;18.23;9.30;;;11.40;99.90;;;;;;5063066;28;20195;-75
2023/04/16 20:19:06;;;;;;;16.73;9.00;;;11.40;99.90;;;;;;5059616;28;20662;-76
2023/04/16 20:21:33;;;;;;;18.17;9.10;;;11.40;99.90;;;;;;5058563;28;20200;-74
2023/04/16 20:24:01;;;;;;;19.07;8.80;;;11.50;99.90;;;;;;5054837;28;20231;-76
2023/04/16 20:26:32;;;;;;;18.83;9.70;;;11.50;99.90;;;;;;5054229;28;20208;-75
2023/04/16 20:28:59;;;;;;;19.43;9.03;;;11.50;99.90;;;;;;5055929;28;20219;-75
2023/04/16 20:31:26;;;;;;;16.10;8.40;;;11.60;99.90;;;;;;5055197;28;20200;-74